createdAt,value
2024-01-16T00:07:13.972Z,90.9
2024-01-16T00:22:38.763Z,90.7
2024-01-16T00:38:03.644Z,91
2024-01-16T00:53:29.285Z,90.5
2024-01-16T01:08:54.016Z,90.5
2024-01-16T01:24:18.581Z,90.5
2024-01-16T01:39:43.681Z,91
2024-01-16T01:55:08.037Z,90.6
2024-01-16T02:10:33.332Z,90.5
2024-01-16T02:25:58.639Z,90.5
2024-01-16T02:41:23.303Z,90.6
2024-01-16T02:56:48.720Z,90.5
2024-01-16T03:12:13.650Z,90.5
2024-01-16T03:27:37.705Z,90.4
2024-01-16T03:43:02.464Z,90.5
2024-01-16T03:58:28.129Z,90.6
2024-01-16T04:13:53.682Z,90.4
2024-01-16T04:29:18.962Z,90.4
2024-01-16T04:44:44.387Z,91.8
2024-01-16T05:00:08.914Z,90.4
2024-01-16T05:15:33.598Z,90.3
2024-01-16T05:30:58.726Z,90.4
2024-01-16T05:46:23.420Z,90.4
2024-01-16T06:01:48.193Z,90.3
2024-01-16T06:17:13.147Z,90.2
2024-01-16T06:32:39.052Z,90.1
2024-01-16T06:48:04.760Z,90
2024-01-16T07:03:30.357Z,89.9
2024-01-16T07:18:55.176Z,90
2024-01-16T07:34:20.850Z,90
2024-01-16T07:49:46.947Z,89.9
2024-01-16T08:05:12.459Z,89.9
2024-01-16T08:20:37.612Z,89.7
2024-01-16T08:36:02.717Z,89.6
2024-01-16T08:51:27.820Z,89.4
2024-01-16T09:06:53.177Z,89.3
2024-01-16T09:22:17.985Z,89.2
2024-01-16T09:37:43.068Z,88.6
2024-01-16T09:53:08.771Z,88.8
2024-01-16T10:08:34.313Z,88.4
2024-01-16T10:24:00.348Z,88.1
2024-01-16T10:39:44.623Z,88
2024-01-16T10:55:09.670Z,88
2024-01-16T11:10:34.690Z,87.8
2024-01-16T11:26:00.365Z,87.8
2024-01-16T11:41:43.589Z,87.6
2024-01-16T11:57:08.924Z,88
2024-01-16T12:12:33.672Z,88.1
2024-01-16T12:27:58.480Z,88.1
2024-01-16T12:43:23.664Z,88
2024-01-16T12:58:48.368Z,87.9
2024-01-16T13:14:14.081Z,88
2024-01-16T13:29:39.556Z,88.2
2024-01-16T13:45:05.467Z,88.2
2024-01-16T14:00:31.587Z,88
2024-01-16T14:15:57.165Z,88
2024-01-16T14:31:22.234Z,88
2024-01-16T14:46:54.311Z,88.1
2024-01-16T15:02:20.326Z,88.1
2024-01-16T15:17:46.349Z,88.2
2024-01-16T15:33:12.609Z,88.5
2024-01-16T15:48:38.617Z,88.8
2024-01-16T16:04:03.979Z,89.1
2024-01-16T16:19:29.462Z,89.1
2024-01-16T16:34:55.252Z,89.1
2024-01-16T16:50:20.860Z,89
2024-01-16T17:05:46.446Z,88.8
2024-01-16T17:21:12.106Z,88.6
2024-01-16T17:36:37.756Z,88.7
2024-01-16T17:52:03.622Z,88.7
2024-01-16T18:07:28.531Z,87.4
2024-01-16T18:22:54.231Z,88.7
2024-01-16T18:38:22.816Z,88.6
2024-01-16T18:53:48.117Z,88.6
2024-01-16T19:09:13.695Z,88.5
2024-01-16T19:24:39.004Z,88.5
2024-01-16T19:40:03.977Z,88.5
2024-01-16T19:55:29.167Z,88.4
2024-01-16T20:10:54.488Z,88.4
2024-01-16T20:26:19.214Z,88.2
2024-01-16T20:41:44.660Z,88.2
2024-01-16T20:57:09.969Z,87.2
2024-01-16T21:12:35.017Z,88
2024-01-16T21:28:06.171Z,87.9
2024-01-16T21:43:31.549Z,88
2024-01-16T21:58:57.261Z,87.9
2024-01-16T22:14:22.765Z,87.8
2024-01-16T22:29:48.074Z,87.2
2024-01-16T22:45:13.537Z,87.6
2024-01-16T23:00:39.394Z,87.5
2024-01-16T23:16:04.883Z,87.4
2024-01-16T23:31:30.143Z,87.3
2024-01-16T23:46:55.735Z,87.3
